createdAt,value
2022-10-22T00:01:08.840Z,24.48
2022-10-22T00:03:36.742Z,31.73
2022-10-22T00:06:04.700Z,30.00
2022-10-22T00:08:32.655Z,26.95
2022-10-22T00:11:08.395Z,21.15
2022-10-22T00:13:36.579Z,24.35
2022-10-22T00:16:04.823Z,14.73
2022-10-22T00:18:32.643Z,14.45
2022-10-22T00:21:00.490Z,13.23
2022-10-22T00:23:28.485Z,29.50
2022-10-22T00:25:56.567Z,22.27
2022-10-22T00:28:25.140Z,25.40
2022-10-22T00:31:00.739Z,27.55
2022-10-22T00:33:30.306Z,26.25
2022-10-22T00:35:58.562Z,26.05
2022-10-22T00:38:26.786Z,25.02
2022-10-22T00:40:55.041Z,25.75
2022-10-22T00:43:22.839Z,25.95
2022-10-22T00:45:50.674Z,20.00
2022-10-22T00:48:31.928Z,30.25
2022-10-22T00:51:08.665Z,26.27
2022-10-22T00:53:45.793Z,18.25
2022-10-22T00:58:50.049Z,19.67
2022-10-22T01:01:25.368Z,18.13
2022-10-22T01:03:54.065Z,17.70
2022-10-22T01:06:33.612Z,19.50
2022-10-22T01:09:41.154Z,18.77
2022-10-22T01:12:48.092Z,20.40
2022-10-22T01:15:56.219Z,24.50
2022-10-22T01:18:57.493Z,22.40
2022-10-22T01:21:40.002Z,22.92
2022-10-22T01:24:57.555Z,25.92
2022-10-22T01:28:12.923Z,26.02
2022-10-22T01:30:42.341Z,22.92
2022-10-22T01:33:16.027Z,23.55
2022-10-22T01:35:45.641Z,23.55
2022-10-22T01:38:20.691Z,25.70
2022-10-22T01:40:50.276Z,25.38
2022-10-22T01:43:18.227Z,36.80
2022-10-22T01:45:54.246Z,31.42
2022-10-22T01:48:57.383Z,33.28
2022-10-22T01:51:51.964Z,34.72
2022-10-22T01:54:36.515Z,36.40
2022-10-22T01:57:31.539Z,34.08
2022-10-22T02:00:13.625Z,30.15
2022-10-22T02:03:07.912Z,26.70
2022-10-22T02:05:49.208Z,38.55
2022-10-22T02:08:24.693Z,24.08
2022-10-22T02:16:06.897Z,25.80
2022-10-22T02:18:40.304Z,13.63
2022-10-22T02:23:41.878Z,9.88
2022-10-22T02:26:32.226Z,10.02
2022-10-22T02:29:18.523Z,11.02
2022-10-22T02:31:51.079Z,11.50
2022-10-22T02:34:26.873Z,21.77
2022-10-22T02:36:56.596Z,27.65
2022-10-22T02:39:26.467Z,11.02
2022-10-22T02:41:55.657Z,19.48
2022-10-22T02:44:24.389Z,12.50
2022-10-22T02:46:52.388Z,11.88
2022-10-22T02:49:20.285Z,12.20
2022-10-22T02:51:48.155Z,20.60
2022-10-22T02:54:15.976Z,21.70
2022-10-22T02:56:43.723Z,21.13
2022-10-22T02:59:11.545Z,19.38
2022-10-22T03:01:39.289Z,31.85
2022-10-22T03:04:07.286Z,26.35
2022-10-22T03:06:35.182Z,127.85
2022-10-22T03:09:03.173Z,88.97
2022-10-22T03:11:30.892Z,42.67
2022-10-22T03:13:58.638Z,19.98
2022-10-22T03:16:26.362Z,24.40
2022-10-22T03:18:55.162Z,30.17
2022-10-22T03:21:33.984Z,14.85
2022-10-22T03:24:13.202Z,17.13
2022-10-22T03:26:45.406Z,21.33
2022-10-22T03:29:15.972Z,32.50
2022-10-22T03:34:13.475Z,18.35
2022-10-22T03:36:41.898Z,28.15
2022-10-22T03:39:13.481Z,26.48
2022-10-22T03:41:41.799Z,25.33
2022-10-22T03:44:11.272Z,14.40
2022-10-22T03:46:39.055Z,114.75
2022-10-22T03:49:06.739Z,58.70
2022-10-22T03:51:34.587Z,25.63
2022-10-22T03:54:04.012Z,14.00
2022-10-22T03:56:32.442Z,11.90
2022-10-22T03:59:01.663Z,37.30
2022-10-22T04:01:31.617Z,25.70
2022-10-22T04:03:59.672Z,15.73
2022-10-22T04:06:29.506Z,11.77
2022-10-22T04:08:57.980Z,9.73
2022-10-22T04:11:26.485Z,15.75
2022-10-22T04:13:54.455Z,10.80
2022-10-22T04:16:26.169Z,22.52
2022-10-22T04:18:56.941Z,18.35
2022-10-22T04:21:26.093Z,25.10
2022-10-22T04:23:54.116Z,10.20
2022-10-22T04:26:22.041Z,16.75
2022-10-22T04:28:51.897Z,16.92
2022-10-22T04:31:23.758Z,20.00
2022-10-22T04:34:00.194Z,20.95
2022-10-22T04:36:29.522Z,25.30
2022-10-22T04:39:00.939Z,24.10
2022-10-22T04:41:36.121Z,33.75
2022-10-22T04:44:04.417Z,22.10
2022-10-22T04:46:35.033Z,24.23
2022-10-22T04:51:32.933Z,26.30
2022-10-22T04:54:00.622Z,20.17
2022-10-22T04:56:31.835Z,19.80
2022-10-22T04:59:06.810Z,21.92
2022-10-22T05:01:42.978Z,27.10
2022-10-22T05:04:17.718Z,39.60
2022-10-22T05:06:45.782Z,73.60
2022-10-22T05:09:18.515Z,49.17
2022-10-22T05:11:50.049Z,26.65
2022-10-22T05:14:22.139Z,41.45
2022-10-22T05:16:51.506Z,21.83
2022-10-22T05:19:24.995Z,20.02
2022-10-22T05:21:55.707Z,54.53
2022-10-22T05:24:25.531Z,16.90
2022-10-22T05:26:56.025Z,22.48
2022-10-22T05:29:24.621Z,22.13
2022-10-22T05:31:53.426Z,15.18
2022-10-22T05:34:21.203Z,21.70
2022-10-22T05:36:48.923Z,42.05
2022-10-22T05:39:16.713Z,39.50
2022-10-22T05:41:44.388Z,46.50
2022-10-22T05:44:13.750Z,43.25
2022-10-22T05:46:43.314Z,44.47
2022-10-22T05:49:17.076Z,35.03
2022-10-22T05:51:45.111Z,37.00
2022-10-22T05:54:22.186Z,32.47
2022-10-22T05:59:17.282Z,32.05
2022-10-22T06:01:45.080Z,31.38
2022-10-22T06:04:13.888Z,27.70
2022-10-22T06:06:46.482Z,30.35
2022-10-22T06:09:19.576Z,28.80
2022-10-22T06:11:48.953Z,23.88
2022-10-22T06:14:18.279Z,25.73
2022-10-22T06:16:46.393Z,30.20
2022-10-22T06:19:16.758Z,28.77
2022-10-22T06:21:45.275Z,34.75
2022-10-22T06:24:13.922Z,36.45
2022-10-22T06:26:42.133Z,40.95
2022-10-22T06:29:10.505Z,28.60
2022-10-22T06:31:40.786Z,24.00
2022-10-22T06:34:13.348Z,19.08
2022-10-22T06:36:42.920Z,19.20
2022-10-22T06:39:17.206Z,18.92
2022-10-22T06:41:45.424Z,23.92
2022-10-22T06:44:21.201Z,21.98
2022-10-22T06:46:53.234Z,24.02
2022-10-22T06:49:21.911Z,23.17
2022-10-22T06:51:54.345Z,33.88
2022-10-22T06:54:23.396Z,21.55
2022-10-22T06:56:51.131Z,20.90
2022-10-22T06:59:19.062Z,20.58
2022-10-22T07:01:46.873Z,21.20
2022-10-22T07:04:14.890Z,15.65
2022-10-22T07:06:42.625Z,20.23
2022-10-22T07:09:11.105Z,17.63
2022-10-22T07:11:45.764Z,14.38
2022-10-22T07:14:14.956Z,16.33
2022-10-22T07:16:43.254Z,13.73
2022-10-22T07:19:11.464Z,23.65
2022-10-22T07:21:39.505Z,10.40
2022-10-22T07:24:07.891Z,11.18
2022-10-22T07:26:37.008Z,11.23
2022-10-22T07:29:05.387Z,8.73
2022-10-22T07:31:33.178Z,9.23
2022-10-22T07:34:01.125Z,12.48
2022-10-22T07:36:28.957Z,12.95
2022-10-22T07:38:59.679Z,11.32
2022-10-22T07:41:29.810Z,12.95
2022-10-22T07:44:00.745Z,13.23
2022-10-22T07:46:28.750Z,11.90
2022-10-22T07:48:56.595Z,11.27
2022-10-22T07:51:24.335Z,11.93
2022-10-22T07:53:52.073Z,27.00
2022-10-22T07:56:19.727Z,24.13
2022-10-22T07:58:47.403Z,16.95
2022-10-22T08:01:15.375Z,16.08
2022-10-22T08:03:43.147Z,12.60
2022-10-22T08:06:13.912Z,12.52
2022-10-22T08:08:43.611Z,19.88
2022-10-22T08:11:12.462Z,17.77
2022-10-22T08:13:44.847Z,17.02
2022-10-22T08:16:13.997Z,12.85
2022-10-22T08:18:42.451Z,14.10
2022-10-22T08:21:12.879Z,20.50
2022-10-22T08:23:40.790Z,10.85
2022-10-22T08:26:09.310Z,15.57
2022-10-22T08:28:37.401Z,14.90
2022-10-22T08:31:09.269Z,15.07
2022-10-22T08:33:38.917Z,12.75
2022-10-22T08:36:08.223Z,11.00
2022-10-22T08:38:36.119Z,11.05
2022-10-22T08:41:19.868Z,8.60
2022-10-22T08:44:26.925Z,10.23
2022-10-22T08:47:26.402Z,15.80
2022-10-22T08:49:57.098Z,9.90
2022-10-22T08:52:25.205Z,11.55
2022-10-22T08:54:58.837Z,16.58
2022-10-22T08:58:18.988Z,15.35
2022-10-22T09:00:58.663Z,14.85
2022-10-22T09:03:35.326Z,14.55
2022-10-22T09:06:35.381Z,18.02
2022-10-22T09:09:16.613Z,24.95
2022-10-22T09:11:53.328Z,29.10
2022-10-22T09:14:24.626Z,32.90
2022-10-22T09:17:34.187Z,33.67
2022-10-22T09:20:26.156Z,30.80
2022-10-22T09:23:24.077Z,30.77
2022-10-22T09:25:52.761Z,37.30
2022-10-22T09:28:20.456Z,34.95
2022-10-22T09:30:48.305Z,31.85
2022-10-22T09:33:25.219Z,29.50
2022-10-22T09:35:56.545Z,31.85
2022-10-22T09:38:31.321Z,34.85
2022-10-22T09:41:04.096Z,28.02
2022-10-22T09:43:33.752Z,35.60
2022-10-22T09:46:06.353Z,46.22
2022-10-22T09:48:40.949Z,30.73
2022-10-22T09:51:41.681Z,28.30
2022-10-22T09:54:21.306Z,17.98
2022-10-22T09:56:55.840Z,14.23
2022-10-22T09:59:33.901Z,17.73
2022-10-22T10:02:26.815Z,11.50
2022-10-22T10:05:04.993Z,10.60
2022-10-22T10:07:35.173Z,10.40
2022-10-22T10:10:03.615Z,9.05
2022-10-22T10:12:47.928Z,12.18
2022-10-22T10:15:37.570Z,14.70
2022-10-22T10:18:56.178Z,16.67
2022-10-22T10:22:16.911Z,17.52
2022-10-22T10:25:31.808Z,19.23
2022-10-22T10:28:35.741Z,14.55
2022-10-22T10:31:36.641Z,12.27
2022-10-22T10:34:45.399Z,16.00
2022-10-22T10:37:25.069Z,15.45
2022-10-22T10:40:29.761Z,9.98
2022-10-22T10:42:57.460Z,14.00
2022-10-22T10:46:05.445Z,14.18
2022-10-22T10:49:08.400Z,14.60
2022-10-22T10:51:57.344Z,15.55
2022-10-22T10:55:05.358Z,16.30
2022-10-22T10:57:48.699Z,19.08
2022-10-22T11:00:20.332Z,13.45
2022-10-22T11:03:15.689Z,18.33
2022-10-22T11:05:55.656Z,16.77
2022-10-22T11:08:33.042Z,9.48
2022-10-22T11:11:32.307Z,9.75
2022-10-22T11:14:15.017Z,14.00
2022-10-22T11:17:04.190Z,12.05
2022-10-22T11:19:57.801Z,18.27
2022-10-22T11:22:50.536Z,14.23
2022-10-22T11:25:39.584Z,15.60
2022-10-22T11:28:27.849Z,13.52
2022-10-22T11:31:08.878Z,16.27
2022-10-22T11:34:31.891Z,21.27
2022-10-22T11:37:00.461Z,15.35
2022-10-22T11:39:39.699Z,11.40
2022-10-22T11:42:18.254Z,11.63
2022-10-22T11:45:15.334Z,11.90
2022-10-22T11:47:57.833Z,10.07
2022-10-22T11:50:47.804Z,11.50
2022-10-22T11:53:15.579Z,83.05
2022-10-22T11:55:51.741Z,48.00
2022-10-22T11:58:29.732Z,28.20
2022-10-22T12:01:09.608Z,34.75
2022-10-22T12:04:18.696Z,23.73
2022-10-22T12:06:58.657Z,16.08
2022-10-22T12:09:30.434Z,11.05
2022-10-22T12:12:24.550Z,12.88
2022-10-22T12:14:57.745Z,9.10
2022-10-22T12:17:28.278Z,15.27
2022-10-22T12:20:07.567Z,14.55
2022-10-22T12:22:37.923Z,15.60
2022-10-22T12:25:34.738Z,14.75
2022-10-22T12:28:10.893Z,41.83
2022-10-22T12:30:38.985Z,20.48
2022-10-22T12:33:16.815Z,17.17
2022-10-22T12:35:46.745Z,16.02
2022-10-22T12:38:23.478Z,17.33
2022-10-22T12:40:57.221Z,9.25
2022-10-22T12:43:31.112Z,11.80
2022-10-22T12:46:00.215Z,14.20
2022-10-22T12:48:34.528Z,15.88
2022-10-22T12:51:08.080Z,16.98
2022-10-22T12:53:52.129Z,11.90
2022-10-22T12:56:35.399Z,11.77
2022-10-22T12:59:19.991Z,10.35
2022-10-22T13:01:50.939Z,15.98
2022-10-22T13:04:28.623Z,18.00
2022-10-22T13:07:18.357Z,16.10
2022-10-22T13:10:01.710Z,14.10
2022-10-22T13:12:37.000Z,22.00
2022-10-22T13:15:40.114Z,30.52
2022-10-22T13:18:23.990Z,15.10
2022-10-22T13:21:02.521Z,18.70
2022-10-22T13:23:34.297Z,14.07
2022-10-22T13:26:01.900Z,16.88
2022-10-22T13:28:34.114Z,15.43
2022-10-22T13:31:17.939Z,12.77
2022-10-22T13:33:53.969Z,14.07
2022-10-22T13:36:23.015Z,12.13
2022-10-22T13:38:51.273Z,8.80
2022-10-22T13:41:23.762Z,12.13
2022-10-22T13:43:54.079Z,12.27
2022-10-22T13:46:23.803Z,8.20
2022-10-22T13:48:55.372Z,9.45
2022-10-22T13:51:35.003Z,11.30
2022-10-22T13:54:06.936Z,12.82
2022-10-22T13:56:34.691Z,12.88
2022-10-22T13:59:03.205Z,12.93
2022-10-22T14:01:31.558Z,10.27
2022-10-22T14:04:04.598Z,11.15
2022-10-22T14:09:15.003Z,12.55
2022-10-22T14:11:43.453Z,10.65
2022-10-22T14:14:14.374Z,12.20
2022-10-22T14:16:42.209Z,13.50
2022-10-22T14:19:17.251Z,12.38
2022-10-22T14:21:45.687Z,15.90
2022-10-22T14:24:14.136Z,11.73
2022-10-22T14:26:42.058Z,15.23
2022-10-22T14:29:12.090Z,19.80
2022-10-22T14:31:44.345Z,14.00
2022-10-22T14:34:15.926Z,13.80
2022-10-22T14:36:44.329Z,13.60
2022-10-22T14:39:13.837Z,13.68
2022-10-22T14:41:42.666Z,13.73
2022-10-22T14:44:14.534Z,17.63
2022-10-22T14:46:44.209Z,18.80
2022-10-22T14:49:12.918Z,17.27
2022-10-22T14:51:40.619Z,14.30
2022-10-22T14:54:08.473Z,12.10
2022-10-22T14:59:10.606Z,9.65
2022-10-22T15:01:39.718Z,10.35
2022-10-22T15:04:07.591Z,12.65
2022-10-22T15:06:36.300Z,16.88
2022-10-22T15:09:04.547Z,45.83
2022-10-22T15:11:32.381Z,30.10
2022-10-22T15:14:00.034Z,164.45
2022-10-22T15:16:27.827Z,196.88
2022-10-22T15:18:55.777Z,107.07
2022-10-22T15:21:24.046Z,67.35
2022-10-22T15:23:51.824Z,53.63
2022-10-22T15:26:19.701Z,47.70
2022-10-22T15:28:47.456Z,61.25
2022-10-22T15:31:15.479Z,76.22
2022-10-22T15:33:43.906Z,65.13
2022-10-22T15:36:17.961Z,61.13
2022-10-22T15:38:46.061Z,56.88
2022-10-22T15:41:14.024Z,49.53
2022-10-22T15:43:42.151Z,47.33
2022-10-22T15:46:14.661Z,41.03
2022-10-22T15:48:42.858Z,36.65
2022-10-22T15:51:17.759Z,67.88
2022-10-22T15:53:56.531Z,83.82
2022-10-22T15:56:26.965Z,55.72
2022-10-22T15:59:02.747Z,47.03
2022-10-22T16:01:33.149Z,54.97
2022-10-22T16:04:04.678Z,49.90
2022-10-22T16:06:37.453Z,32.80
2022-10-22T16:09:13.652Z,50.70
2022-10-22T16:11:42.462Z,41.22
2022-10-22T16:14:16.625Z,50.92
2022-10-22T16:16:47.557Z,60.42
2022-10-22T16:19:18.618Z,48.90
2022-10-22T16:21:50.865Z,47.40
2022-10-22T16:24:19.907Z,41.58
2022-10-22T16:26:48.818Z,43.80
2022-10-22T16:29:16.893Z,41.97
2022-10-22T16:31:45.531Z,38.40
2022-10-22T16:34:13.732Z,49.15
2022-10-22T16:36:41.546Z,47.50
2022-10-22T16:39:09.385Z,46.90
2022-10-22T16:41:37.268Z,27.88
2022-10-22T16:44:08.030Z,28.73
2022-10-22T16:46:39.906Z,21.25
2022-10-22T16:49:08.439Z,24.58
2022-10-22T16:51:36.659Z,29.50
2022-10-22T16:54:06.943Z,49.47
2022-10-22T16:56:37.773Z,57.58
2022-10-22T16:59:08.476Z,53.42
2022-10-22T17:01:40.936Z,34.28
2022-10-22T17:04:10.157Z,36.65
2022-10-22T17:06:37.956Z,31.48
2022-10-22T17:09:06.322Z,38.50
2022-10-22T17:11:36.447Z,39.70
2022-10-22T17:14:06.908Z,34.13
2022-10-22T17:16:34.578Z,35.97
2022-10-22T17:19:05.435Z,33.70
2022-10-22T17:21:34.080Z,45.72
2022-10-22T17:24:01.940Z,53.88
2022-10-22T17:26:30.535Z,46.63
2022-10-22T17:28:58.546Z,43.17
2022-10-22T17:31:32.609Z,59.13
2022-10-22T17:34:00.452Z,55.30
2022-10-22T17:36:33.275Z,50.90
2022-10-22T17:39:07.732Z,70.28
2022-10-22T17:41:37.709Z,91.82
2022-10-22T17:44:09.349Z,92.35
2022-10-22T17:46:41.892Z,77.55
2022-10-22T17:49:20.437Z,65.40
2022-10-22T17:51:48.333Z,49.97
2022-10-22T17:54:16.309Z,60.38
2022-10-22T17:56:44.328Z,55.63
2022-10-22T17:59:17.090Z,43.78
2022-10-22T18:01:48.823Z,53.90
2022-10-22T18:04:21.213Z,38.47
2022-10-22T18:06:50.057Z,29.88
2022-10-22T18:09:20.278Z,48.92
2022-10-22T18:11:51.416Z,44.60
2022-10-22T18:16:51.964Z,75.10
2022-10-22T18:19:23.345Z,88.50
2022-10-22T18:21:51.241Z,69.03
2022-10-22T18:24:19.107Z,41.97
2022-10-22T18:26:46.904Z,34.13
2022-10-22T18:29:18.530Z,46.70
2022-10-22T18:31:47.525Z,47.90
2022-10-22T18:34:17.810Z,62.60
2022-10-22T18:36:48.212Z,59.40
2022-10-22T18:39:16.144Z,51.22
2022-10-22T18:41:44.440Z,79.70
2022-10-22T18:44:15.487Z,73.70
2022-10-22T18:46:43.405Z,50.53
2022-10-22T18:49:18.573Z,38.65
2022-10-22T18:51:48.929Z,47.58
2022-10-22T18:54:23.019Z,70.82
2022-10-22T18:56:59.447Z,59.67
2022-10-22T18:59:31.060Z,57.80
2022-10-22T19:01:59.727Z,54.63
2022-10-22T19:04:37.373Z,46.53
2022-10-22T19:07:06.163Z,41.47
2022-10-22T19:09:34.403Z,45.22
2022-10-22T19:12:02.615Z,42.17
2022-10-22T19:14:30.622Z,79.45
2022-10-22T19:16:58.447Z,106.03
2022-10-22T19:19:26.521Z,76.50
2022-10-22T19:21:56.852Z,52.00
2022-10-22T19:26:52.358Z,43.85
2022-10-22T19:29:21.524Z,33.92
2022-10-22T19:31:51.407Z,33.72
2022-10-22T19:34:20.647Z,38.22
2022-10-22T19:36:51.716Z,40.17
2022-10-22T19:39:20.563Z,28.20
2022-10-22T19:41:48.644Z,25.52
2022-10-22T19:44:16.576Z,133.82
2022-10-22T19:46:44.354Z,88.50
2022-10-22T19:49:12.109Z,60.03
2022-10-22T19:51:40.249Z,52.55
2022-10-22T19:54:12.856Z,56.05
2022-10-22T19:56:41.376Z,53.10
2022-10-22T19:59:09.392Z,46.15
2022-10-22T20:01:38.815Z,45.45
2022-10-22T20:04:06.630Z,55.60
2022-10-22T20:06:34.439Z,66.10
2022-10-22T20:09:02.221Z,45.83
2022-10-22T20:11:30.639Z,67.80
2022-10-22T20:13:59.068Z,46.80
2022-10-22T20:16:30.174Z,53.15
2022-10-22T20:19:05.387Z,53.20
2022-10-22T20:21:34.646Z,50.33
2022-10-22T20:24:02.645Z,57.50
2022-10-22T20:26:31.711Z,41.28
2022-10-22T20:28:59.885Z,36.83
2022-10-22T20:31:33.029Z,41.17
2022-10-22T20:34:02.101Z,51.13
2022-10-22T20:36:31.717Z,49.40
2022-10-22T20:39:09.302Z,43.42
2022-10-22T20:41:40.335Z,31.63
2022-10-22T20:44:15.487Z,35.35
2022-10-22T20:46:44.525Z,23.33
2022-10-22T20:49:16.878Z,20.15
2022-10-22T20:51:45.252Z,26.25
2022-10-22T20:54:15.011Z,27.67
2022-10-22T20:56:43.515Z,29.48
2022-10-22T20:59:12.451Z,30.60
2022-10-22T21:01:44.849Z,27.50
2022-10-22T21:04:13.648Z,25.23
2022-10-22T21:06:43.143Z,18.73
2022-10-22T21:09:14.433Z,17.58
2022-10-22T21:11:43.794Z,15.57
2022-10-22T21:14:14.882Z,17.40
2022-10-22T21:16:51.971Z,13.90
2022-10-22T21:19:22.612Z,25.13
2022-10-22T21:21:50.474Z,17.40
2022-10-22T21:24:18.547Z,12.50
2022-10-22T21:26:46.249Z,14.77
2022-10-22T21:29:13.940Z,13.57
2022-10-22T21:31:41.852Z,11.43
2022-10-22T21:34:09.606Z,9.18
2022-10-22T21:36:37.381Z,12.25
2022-10-22T21:39:06.717Z,15.00
2022-10-22T21:41:34.527Z,12.75
2022-10-22T21:44:02.260Z,14.65
2022-10-22T21:46:30.138Z,14.55
2022-10-22T21:49:02.116Z,14.95
2022-10-22T21:51:33.047Z,12.57
2022-10-22T21:54:01.200Z,12.27
2022-10-22T21:56:33.332Z,10.50
2022-10-22T21:59:03.910Z,12.43
2022-10-22T22:01:32.062Z,10.50
2022-10-22T22:04:00.018Z,10.90
2022-10-22T22:06:33.027Z,12.98
2022-10-22T22:09:02.327Z,12.82
2022-10-22T22:11:30.988Z,11.63
2022-10-22T22:14:00.405Z,13.95
2022-10-22T22:16:32.379Z,16.75
2022-10-22T22:19:05.589Z,41.63
2022-10-22T22:21:36.991Z,24.83
2022-10-22T22:24:06.001Z,19.45
2022-10-22T22:26:34.270Z,29.92
2022-10-22T22:29:02.181Z,28.98
2022-10-22T22:31:33.588Z,16.23
2022-10-22T22:34:12.873Z,9.57
2022-10-22T22:36:45.579Z,9.52
2022-10-22T22:39:21.022Z,46.00
2022-10-22T22:41:49.080Z,31.15
2022-10-22T22:44:17.185Z,42.90
2022-10-22T22:46:45.070Z,59.67
2022-10-22T22:49:13.642Z,38.45
2022-10-22T22:51:43.515Z,36.10
2022-10-22T22:54:11.553Z,36.35
2022-10-22T22:56:39.297Z,33.78
2022-10-22T22:59:07.071Z,26.25
2022-10-22T23:01:38.579Z,24.25
2022-10-22T23:04:19.135Z,28.98
2022-10-22T23:06:46.999Z,36.95
2022-10-22T23:09:17.296Z,23.05
2022-10-22T23:11:47.088Z,35.63
2022-10-22T23:14:17.701Z,35.53
2022-10-22T23:16:50.558Z,50.00
2022-10-22T23:19:22.138Z,21.63
2022-10-22T23:21:55.796Z,22.73
2022-10-22T23:24:26.988Z,18.63
2022-10-22T23:26:56.438Z,14.55
2022-10-22T23:29:28.675Z,17.15
2022-10-22T23:32:01.512Z,22.48
2022-10-22T23:34:31.639Z,20.00
2022-10-22T23:36:59.996Z,18.25
2022-10-22T23:39:29.323Z,15.65
2022-10-22T23:41:58.380Z,17.50
2022-10-22T23:44:26.194Z,12.73
2022-10-22T23:46:55.215Z,17.83
2022-10-22T23:49:23.110Z,18.10
2022-10-22T23:51:50.928Z,15.40
2022-10-22T23:54:19.014Z,15.70
2022-10-22T23:56:47.424Z,15.32
2022-10-22T23:59:15.477Z,12.75
